createdAt,value
2019-02-25T00:00:10.732Z,73.96
2019-02-25T00:01:10.705Z,73.86
2019-02-25T00:02:10.681Z,73.64
2019-02-25T00:03:10.661Z,73.49
2019-02-25T00:04:10.637Z,73.58
2019-02-25T00:05:10.613Z,74.02
2019-02-25T00:06:10.585Z,73.83
2019-02-25T00:07:10.566Z,73.73
2019-02-25T00:08:10.549Z,73.92
2019-02-25T00:09:10.515Z,73.64
2019-02-25T00:10:10.500Z,73.64
2019-02-25T00:11:10.474Z,73.73
2019-02-25T00:12:10.448Z,73.83
2019-02-25T00:13:10.428Z,74.40
2019-02-25T00:14:10.400Z,75.05
2019-02-25T00:15:10.377Z,74.87
2019-02-25T00:16:10.360Z,75.05
2019-02-25T00:17:10.329Z,74.77
2019-02-25T00:18:10.308Z,74.87
2019-02-25T00:19:10.287Z,74.77
2019-02-25T00:20:10.264Z,74.58
2019-02-25T00:21:10.241Z,74.87
2019-02-25T00:22:10.212Z,74.77
2019-02-25T00:23:10.190Z,75.05
2019-02-25T00:24:10.165Z,74.40
2019-02-25T00:25:10.143Z,74.68
2019-02-25T00:26:10.120Z,74.58
2019-02-25T00:27:10.097Z,74.87
2019-02-25T00:28:10.114Z,75.34
2019-02-25T00:29:10.048Z,75.24
2019-02-25T00:30:10.027Z,74.96
2019-02-25T00:31:10.005Z,75.34
2019-02-25T00:32:09.980Z,75.05
2019-02-25T00:33:09.965Z,74.68
2019-02-25T00:34:09.935Z,74.96
2019-02-25T00:35:09.912Z,75.43
2019-02-25T00:36:09.892Z,74.77
2019-02-25T00:37:09.863Z,74.77
2019-02-25T00:38:09.841Z,74.40
2019-02-25T00:39:09.820Z,74.68
2019-02-25T00:40:09.792Z,75.05
2019-02-25T00:41:09.774Z,74.77
2019-02-25T00:42:09.743Z,74.40
2019-02-25T00:43:09.719Z,74.30
2019-02-25T00:44:09.699Z,74.58
2019-02-25T00:45:09.681Z,74.40
2019-02-25T00:46:09.654Z,74.49
2019-02-25T00:47:09.627Z,74.68
2019-02-25T00:48:09.612Z,74.68
2019-02-25T00:49:09.583Z,75.05
2019-02-25T00:50:09.564Z,74.96
2019-02-25T00:51:09.535Z,74.40
2019-02-25T00:52:09.511Z,74.87
2019-02-25T00:53:09.491Z,75.05
2019-02-25T00:54:09.463Z,75.24
2019-02-25T00:55:09.444Z,75.00
2019-02-25T00:56:09.420Z,75.05
2019-02-25T00:57:09.399Z,74.81
2019-02-25T00:58:09.371Z,74.68
2019-02-25T00:59:09.346Z,75.43
2019-02-25T01:00:09.326Z,74.87
2019-02-25T01:01:09.296Z,75.24
2019-02-25T01:02:09.279Z,75.24
2019-02-25T01:03:09.255Z,75.15
2019-02-25T01:04:09.234Z,75.05
2019-02-25T01:05:09.209Z,75.43
2019-02-25T01:06:09.187Z,74.77
2019-02-25T01:07:09.164Z,75.09
2019-02-25T01:08:09.135Z,74.77
2019-02-25T01:09:09.116Z,75.24
2019-02-25T01:10:09.088Z,75.15
2019-02-25T01:11:09.068Z,75.05
2019-02-25T01:12:09.043Z,74.96
2019-02-25T01:13:09.023Z,74.87
2019-02-25T01:14:08.996Z,74.96
2019-02-25T01:15:08.979Z,74.87
2019-02-25T01:16:08.951Z,74.87
2019-02-25T01:17:08.922Z,75.24
2019-02-25T01:18:08.900Z,74.96
2019-02-25T01:19:08.877Z,75.05
2019-02-25T01:20:08.857Z,75.05
2019-02-25T01:21:08.830Z,75.24
2019-02-25T01:22:08.809Z,74.58
2019-02-25T01:23:08.786Z,74.87
2019-02-25T01:24:08.762Z,75.43
2019-02-25T01:25:08.736Z,75.62
2019-02-25T01:26:08.718Z,75.72
2019-02-25T01:27:08.688Z,75.43
2019-02-25T01:28:08.676Z,75.24
2019-02-25T01:29:08.643Z,75.43
2019-02-25T01:30:08.623Z,75.72
2019-02-25T01:31:08.596Z,75.91
2019-02-25T01:32:08.574Z,76.00
2019-02-25T01:33:08.551Z,76.76
2019-02-25T01:34:08.530Z,76.76
2019-02-25T01:35:08.506Z,76.29
2019-02-25T01:36:08.478Z,76.19
2019-02-25T01:37:08.458Z,75.62
2019-02-25T01:38:08.437Z,75.72
2019-02-25T01:39:08.415Z,76.00
2019-02-25T01:40:08.384Z,75.91
2019-02-25T01:41:08.360Z,75.62
2019-02-25T01:42:08.336Z,75.43
2019-02-25T01:43:08.316Z,75.43
2019-02-25T01:44:08.288Z,76.19
2019-02-25T01:45:08.268Z,75.72
2019-02-25T01:46:08.244Z,76.19
2019-02-25T01:47:08.220Z,76.19
2019-02-25T01:48:08.197Z,77.04
2019-02-25T01:49:08.170Z,76.86
2019-02-25T01:50:08.150Z,76.86
2019-02-25T01:51:08.128Z,76.19
2019-02-25T01:52:08.104Z,76.76
2019-02-25T01:53:08.083Z,76.67
2019-02-25T01:54:08.056Z,76.19
2019-02-25T01:55:08.032Z,76.38
2019-02-25T01:56:08.010Z,76.86
2019-02-25T01:57:07.990Z,77.23
2019-02-25T01:58:07.956Z,77.42
2019-02-25T01:59:07.936Z,77.04
2019-02-25T02:00:07.915Z,77.23
2019-02-25T02:01:07.893Z,77.23
2019-02-25T02:02:07.868Z,77.89
2019-02-25T02:03:07.846Z,78.27
2019-02-25T02:04:07.823Z,78.37
2019-02-25T02:05:07.796Z,78.56
2019-02-25T02:06:07.772Z,78.27
2019-02-25T02:07:07.754Z,77.80
2019-02-25T02:08:07.726Z,77.14
2019-02-25T02:09:07.704Z,77.33
2019-02-25T02:10:07.696Z,77.42
2019-02-25T02:11:07.663Z,77.14
2019-02-25T02:12:07.634Z,77.04
2019-02-25T02:13:13.938Z,76.76
2019-02-25T02:14:07.584Z,76.95
2019-02-25T02:15:07.580Z,77.23
2019-02-25T02:16:07.537Z,78.27
2019-02-25T02:17:07.514Z,78.46
2019-02-25T02:18:07.492Z,77.89
2019-02-25T02:19:07.463Z,77.42
2019-02-25T02:20:07.442Z,77.61
2019-02-25T02:21:07.420Z,77.70
2019-02-25T02:22:07.398Z,77.61
2019-02-25T02:23:07.374Z,77.89
2019-02-25T02:24:07.350Z,78.56
2019-02-25T02:25:07.321Z,77.99
2019-02-25T02:26:07.298Z,78.08
2019-02-25T02:27:07.280Z,77.99
2019-02-25T02:28:07.251Z,78.46
2019-02-25T02:29:07.232Z,77.51
2019-02-25T02:30:07.241Z,77.80
2019-02-25T02:31:07.189Z,77.42
2019-02-25T02:32:07.163Z,77.51
2019-02-25T02:33:07.134Z,77.42
2019-02-25T02:34:07.112Z,77.70
2019-02-25T02:35:07.088Z,77.89
2019-02-25T02:36:07.065Z,77.42
2019-02-25T02:37:07.041Z,77.33
2019-02-25T02:38:07.020Z,77.23
2019-02-25T02:39:06.998Z,77.61
2019-02-25T02:40:06.972Z,76.95
2019-02-25T02:41:06.949Z,77.23
2019-02-25T02:42:06.922Z,77.42
2019-02-25T02:43:06.903Z,77.61
2019-02-25T02:44:06.879Z,77.33
2019-02-25T02:45:06.853Z,76.86
2019-02-25T02:46:06.829Z,77.51
2019-02-25T02:47:06.805Z,77.70
2019-02-25T02:48:06.780Z,77.42
2019-02-25T02:49:06.757Z,77.70
2019-02-25T02:50:06.736Z,77.33
2019-02-25T02:51:06.708Z,77.51
2019-02-25T02:52:06.688Z,77.70
2019-02-25T02:53:06.659Z,78.27
2019-02-25T02:54:06.641Z,78.27
2019-02-25T02:55:06.616Z,78.46
2019-02-25T02:56:06.589Z,78.75
2019-02-25T02:57:06.571Z,78.18
2019-02-25T02:58:06.545Z,78.37
2019-02-25T02:59:06.522Z,77.67
2019-02-25T03:00:06.497Z,78.18
2019-02-25T03:01:06.474Z,78.37
2019-02-25T03:02:06.448Z,78.90
2019-02-25T03:03:06.427Z,78.90
2019-02-25T03:04:06.405Z,79.13
2019-02-25T03:05:06.380Z,79.41
2019-02-25T03:06:06.357Z,78.71
2019-02-25T03:07:06.330Z,78.52
2019-02-25T03:08:06.313Z,78.33
2019-02-25T03:09:06.285Z,78.90
2019-02-25T03:10:06.261Z,78.61
2019-02-25T03:11:06.240Z,78.33
2019-02-25T03:12:06.213Z,78.71
2019-02-25T03:13:06.191Z,78.33
2019-02-25T03:14:06.166Z,79.18
2019-02-25T03:15:06.143Z,78.71
2019-02-25T03:16:06.120Z,79.18
2019-02-25T03:17:06.099Z,79.28
2019-02-25T03:18:06.072Z,79.98
2019-02-25T03:19:06.049Z,79.60
2019-02-25T03:20:06.026Z,79.41
2019-02-25T03:21:06.001Z,79.22
2019-02-25T03:22:05.976Z,79.32
2019-02-25T03:23:05.948Z,79.03
2019-02-25T03:24:05.932Z,78.75
2019-02-25T03:25:05.903Z,79.32
2019-02-25T03:26:05.883Z,78.65
2019-02-25T03:27:05.867Z,78.18
2019-02-25T03:28:05.834Z,77.33
2019-02-25T03:29:05.816Z,77.23
2019-02-25T03:30:05.789Z,77.10
2019-02-25T03:31:05.760Z,77.67
2019-02-25T03:32:05.740Z,77.10
2019-02-25T03:33:05.716Z,77.48
2019-02-25T03:34:05.693Z,77.29
2019-02-25T03:35:05.668Z,78.05
2019-02-25T03:36:05.643Z,77.58
2019-02-25T03:37:05.624Z,78.23
2019-02-25T03:38:05.600Z,78.23
2019-02-25T03:39:05.575Z,80.32
2019-02-25T03:40:05.548Z,79.56
2019-02-25T03:41:05.528Z,79.75
2019-02-25T03:42:05.503Z,80.51
2019-02-25T03:43:05.478Z,81.74
2019-02-25T03:44:05.453Z,81.26
2019-02-25T03:45:05.431Z,80.88
2019-02-25T03:46:05.412Z,81.55
2019-02-25T03:47:05.383Z,81.45
2019-02-25T03:48:05.368Z,80.69
2019-02-25T03:49:05.334Z,80.88
2019-02-25T03:50:05.312Z,80.32
2019-02-25T03:51:05.289Z,80.79
2019-02-25T03:52:05.266Z,80.88
2019-02-25T03:53:05.251Z,80.69
2019-02-25T03:54:05.220Z,80.22
2019-02-25T03:55:05.194Z,80.69
2019-02-25T03:56:05.173Z,81.45
2019-02-25T03:57:05.151Z,80.79
2019-02-25T03:58:05.120Z,80.79
2019-02-25T03:59:05.088Z,79.56
2019-02-25T04:00:05.082Z,79.66
2019-02-25T04:01:05.050Z,79.09
2019-02-25T04:02:05.028Z,79.75
2019-02-25T04:03:05.008Z,80.13
2019-02-25T04:04:04.982Z,80.22
2019-02-25T04:05:04.955Z,80.04
2019-02-25T04:06:04.931Z,80.41
2019-02-25T04:07:04.911Z,80.60
2019-02-25T04:08:04.888Z,80.98
2019-02-25T04:09:04.871Z,81.17
2019-02-25T04:10:04.838Z,82.02
2019-02-25T04:11:04.811Z,81.83
2019-02-25T04:12:04.793Z,83.15
2019-02-25T04:13:04.768Z,83.15
2019-02-25T04:14:04.767Z,82.50
2019-02-25T04:15:04.723Z,82.50
2019-02-25T04:16:04.702Z,82.68
2019-02-25T04:17:04.668Z,82.02
2019-02-25T04:18:04.654Z,82.21
2019-02-25T04:19:04.624Z,81.93
2019-02-25T04:20:04.608Z,82.31
2019-02-25T04:21:04.576Z,82.68
2019-02-25T04:22:04.554Z,82.78
2019-02-25T04:23:04.541Z,82.40
2019-02-25T04:24:04.506Z,82.40
2019-02-25T04:25:04.481Z,82.12
2019-02-25T04:26:04.460Z,82.50
2019-02-25T04:27:04.433Z,82.78
2019-02-25T04:28:04.408Z,82.02
2019-02-25T04:29:04.388Z,81.45
2019-02-25T04:30:04.372Z,82.02
2019-02-25T04:31:04.335Z,82.21
2019-02-25T04:32:04.315Z,81.74
2019-02-25T04:33:04.290Z,82.12
2019-02-25T04:34:04.273Z,82.78
2019-02-25T04:35:04.251Z,82.40
2019-02-25T04:36:04.220Z,82.21
2019-02-25T04:37:04.196Z,82.87
2019-02-25T04:38:04.169Z,82.21
2019-02-25T04:39:04.147Z,82.21
2019-02-25T04:40:04.121Z,82.50
2019-02-25T04:41:04.101Z,82.12
2019-02-25T04:42:04.080Z,83.06
2019-02-25T04:43:04.060Z,83.44
2019-02-25T04:44:04.028Z,82.59
2019-02-25T04:45:04.005Z,83.63
2019-02-25T04:46:03.980Z,83.72
2019-02-25T04:47:03.961Z,83.72
2019-02-25T04:48:03.934Z,83.44
2019-02-25T04:49:03.910Z,83.06
2019-02-25T04:50:03.885Z,82.50
2019-02-25T04:51:03.863Z,82.21
2019-02-25T04:52:03.834Z,82.12
2019-02-25T04:53:03.812Z,83.15
2019-02-25T04:54:03.794Z,83.44
2019-02-25T04:55:03.769Z,83.06
2019-02-25T04:56:03.746Z,82.68
2019-02-25T04:57:03.715Z,82.68
2019-02-25T04:58:03.682Z,83.25
2019-02-25T04:59:03.672Z,83.53
2019-02-25T05:00:03.649Z,84.01
2019-02-25T05:01:03.621Z,83.72
2019-02-25T05:02:03.599Z,83.91
2019-02-25T05:03:03.575Z,84.01
2019-02-25T05:04:03.557Z,84.10
2019-02-25T05:05:03.528Z,83.15
2019-02-25T05:06:03.504Z,83.15
2019-02-25T05:07:03.479Z,83.06
2019-02-25T05:08:03.453Z,82.59
2019-02-25T05:09:03.436Z,83.25
2019-02-25T05:10:03.409Z,84.06
2019-02-25T05:11:03.379Z,84.72
2019-02-25T05:12:03.374Z,84.44
2019-02-25T05:13:03.352Z,84.34
2019-02-25T05:14:03.311Z,84.16
2019-02-25T05:15:03.290Z,84.16
2019-02-25T05:16:03.262Z,84.06
2019-02-25T05:17:03.239Z,84.86
2019-02-25T05:18:03.215Z,84.34
2019-02-25T05:19:03.192Z,83.68
2019-02-25T05:20:03.165Z,83.87
2019-02-25T05:21:03.148Z,84.34
2019-02-25T05:22:03.130Z,83.87
2019-02-25T05:23:03.093Z,83.78
2019-02-25T05:24:03.072Z,83.87
2019-02-25T05:25:03.047Z,83.97
2019-02-25T05:26:03.028Z,84.29
2019-02-25T05:27:03.001Z,84.20
2019-02-25T05:28:02.978Z,84.06
2019-02-25T05:29:02.955Z,84.01
2019-02-25T05:30:02.928Z,83.72
2019-02-25T05:31:02.907Z,83.15
2019-02-25T05:32:02.879Z,83.44
2019-02-25T05:33:02.860Z,82.92
2019-02-25T05:34:02.831Z,82.97
2019-02-25T05:35:02.803Z,83.44
2019-02-25T05:36:02.796Z,83.44
2019-02-25T05:37:02.758Z,83.82
2019-02-25T05:38:02.740Z,83.53
2019-02-25T05:39:02.720Z,83.25
2019-02-25T05:40:02.686Z,83.15
2019-02-25T05:41:02.663Z,83.91
2019-02-25T05:42:02.639Z,84.67
2019-02-25T05:43:02.620Z,83.82
2019-02-25T05:44:02.589Z,83.11
2019-02-25T05:45:02.570Z,83.44
2019-02-25T05:46:02.567Z,83.34
2019-02-25T05:47:02.528Z,83.82
2019-02-25T05:48:02.504Z,83.34
2019-02-25T05:49:02.482Z,83.63
2019-02-25T05:50:02.447Z,83.30
2019-02-25T05:51:02.427Z,83.97
2019-02-25T05:52:02.406Z,83.87
2019-02-25T05:53:02.377Z,83.59
2019-02-25T05:54:02.360Z,83.68
2019-02-25T05:55:02.327Z,83.78
2019-02-25T05:56:02.305Z,83.97
2019-02-25T05:57:02.288Z,83.87
2019-02-25T05:58:02.263Z,83.40
2019-02-25T05:59:02.230Z,83.02
2019-02-25T06:00:02.209Z,83.68
2019-02-25T06:01:02.182Z,83.59
2019-02-25T06:02:02.158Z,83.97
2019-02-25T06:03:02.139Z,83.59
2019-02-25T06:04:02.110Z,83.06
2019-02-25T06:05:02.085Z,83.25
2019-02-25T06:06:02.067Z,83.53
2019-02-25T06:07:02.047Z,83.59
2019-02-25T06:08:02.026Z,83.63
2019-02-25T06:09:01.995Z,83.34
2019-02-25T06:10:01.968Z,82.87
2019-02-25T06:11:01.947Z,82.78
2019-02-25T06:12:01.924Z,82.17
2019-02-25T06:13:01.897Z,81.98
2019-02-25T06:14:01.873Z,82.26
2019-02-25T06:15:01.847Z,82.64
2019-02-25T06:16:01.832Z,82.35
2019-02-25T06:17:01.800Z,83.11
2019-02-25T06:18:01.773Z,83.02
2019-02-25T06:19:01.750Z,83.87
2019-02-25T06:20:01.730Z,83.21
2019-02-25T06:21:01.712Z,83.21
2019-02-25T06:22:01.679Z,83.53
2019-02-25T06:23:01.656Z,83.82
2019-02-25T06:24:01.636Z,83.91
2019-02-25T06:25:01.608Z,83.72
2019-02-25T06:26:01.583Z,83.63
2019-02-25T06:27:01.564Z,83.91
2019-02-25T06:28:01.549Z,83.91
2019-02-25T06:29:01.513Z,83.53
2019-02-25T06:30:01.490Z,83.63
2019-02-25T06:31:01.462Z,82.97
2019-02-25T06:32:01.437Z,82.68
2019-02-25T06:33:01.412Z,82.40
2019-02-25T06:34:01.390Z,82.12
2019-02-25T06:35:01.367Z,82.12
2019-02-25T06:36:01.342Z,82.21
2019-02-25T06:37:01.317Z,81.83
2019-02-25T06:38:01.294Z,82.12
2019-02-25T06:39:01.269Z,82.31
2019-02-25T06:40:01.256Z,82.50
2019-02-25T06:41:01.220Z,82.59
2019-02-25T06:42:01.198Z,82.97
2019-02-25T06:43:01.174Z,82.97
2019-02-25T06:44:01.150Z,83.15
2019-02-25T06:45:01.125Z,82.59
2019-02-25T06:46:01.104Z,82.21
2019-02-25T06:47:01.094Z,82.21
2019-02-25T06:48:01.054Z,82.40
2019-02-25T06:49:01.039Z,83.44
2019-02-25T06:50:01.002Z,83.25
2019-02-25T06:51:00.988Z,82.68
2019-02-25T06:52:00.960Z,83.25
2019-02-25T06:53:00.935Z,82.97
2019-02-25T06:54:00.910Z,83.06
2019-02-25T06:55:00.890Z,83.15
2019-02-25T06:56:00.866Z,83.53
2019-02-25T06:57:00.840Z,83.44
2019-02-25T06:58:00.818Z,83.72
2019-02-25T06:59:00.790Z,84.20
2019-02-25T07:00:00.764Z,84.67
2019-02-25T07:01:00.753Z,85.71
2019-02-25T07:02:00.718Z,85.42
2019-02-25T07:03:00.699Z,86.56
2019-02-25T07:04:00.670Z,85.33
2019-02-25T07:05:00.646Z,86.09
2019-02-25T07:06:00.620Z,86.09
2019-02-25T07:07:00.600Z,85.33
2019-02-25T07:08:00.620Z,84.95
2019-02-25T07:09:00.553Z,84.39
2019-02-25T07:10:00.532Z,84.58
2019-02-25T07:11:00.512Z,83.72
2019-02-25T07:12:00.482Z,84.39
2019-02-25T07:13:00.453Z,83.34
2019-02-25T07:14:00.433Z,83.29
2019-02-25T07:15:00.410Z,83.39
2019-02-25T07:16:00.384Z,84.05
2019-02-25T07:17:00.356Z,84.23
2019-02-25T07:18:00.334Z,84.05
2019-02-25T07:19:00.312Z,84.42
2019-02-25T07:20:00.307Z,84.14
2019-02-25T07:21:00.268Z,84.23
2019-02-25T07:22:00.239Z,85.57
2019-02-25T07:23:00.217Z,85.00
2019-02-25T07:24:00.200Z,84.90
2019-02-25T07:25:00.305Z,84.52
2019-02-25T07:26:00.156Z,85.47
2019-02-25T07:27:00.129Z,85.38
2019-02-25T07:28:00.103Z,84.52
2019-02-25T07:29:00.075Z,85.57
2019-02-25T07:30:00.056Z,86.51
2019-02-25T07:31:00.037Z,86.32
2019-02-25T07:32:00.014Z,86.13
2019-02-25T07:32:59.986Z,86.13
2019-02-25T07:33:59.959Z,86.51
2019-02-25T07:34:59.944Z,86.70
2019-02-25T07:35:59.914Z,85.66
2019-02-25T07:36:59.885Z,85.75
2019-02-25T07:37:59.869Z,85.19
2019-02-25T07:38:59.840Z,85.89
2019-02-25T07:39:59.818Z,85.61
2019-02-25T07:40:59.789Z,85.51
2019-02-25T07:41:59.767Z,84.85
2019-02-25T07:42:59.751Z,84.75
2019-02-25T07:43:59.722Z,85.13
2019-02-25T07:44:59.695Z,84.75
2019-02-25T07:45:59.675Z,84.38
2019-02-25T07:46:59.655Z,84.28
2019-02-25T07:47:59.633Z,83.94
2019-02-25T07:48:59.606Z,84.04
2019-02-25T07:49:59.579Z,83.75
2019-02-25T07:50:59.564Z,83.94
2019-02-25T07:51:59.538Z,82.71
2019-02-25T07:52:59.509Z,82.05
2019-02-25T07:53:59.488Z,82.33
2019-02-25T07:54:59.469Z,82.62
2019-02-25T07:56:02.326Z,81.62
2019-02-25T07:56:59.419Z,81.43
2019-02-25T07:57:59.403Z,80.67
2019-02-25T07:58:59.376Z,80.19
2019-02-25T07:59:59.357Z,79.10
2019-02-25T08:00:59.331Z,77.96
2019-02-25T08:01:59.316Z,76.73
2019-02-25T08:02:59.283Z,75.05
2019-02-25T08:03:59.307Z,73.54
2019-02-25T08:04:59.241Z,73.10
2019-02-25T08:05:59.215Z,71.81
2019-02-25T08:06:59.204Z,69.71
2019-02-25T08:07:59.173Z,67.76
2019-02-25T08:08:59.147Z,66.74
2019-02-25T08:09:59.128Z,65.03
2019-02-25T08:10:59.107Z,64.02
2019-02-25T08:11:59.083Z,63.83
2019-02-25T08:12:59.062Z,61.86
2019-02-25T08:13:59.043Z,60.08
2019-02-25T08:14:59.017Z,58.94
2019-02-25T08:15:59.003Z,57.73
2019-02-25T08:16:58.975Z,56.81
2019-02-25T08:17:58.953Z,55.88
2019-02-25T08:18:58.929Z,54.07
2019-02-25T08:19:58.912Z,52.86
2019-02-25T08:20:58.894Z,51.93
2019-02-25T08:21:58.869Z,50.88
2019-02-25T08:22:58.852Z,49.93
2019-02-25T08:23:58.828Z,50.02
2019-02-25T08:24:58.811Z,50.78
2019-02-25T08:25:58.796Z,50.85
2019-02-25T08:26:58.767Z,50.78
2019-02-25T08:27:58.748Z,49.85
2019-02-25T08:28:58.728Z,48.07
2019-02-25T08:29:58.712Z,46.66
2019-02-25T08:30:58.689Z,46.27
2019-02-25T08:31:58.672Z,44.65
2019-02-25T08:32:58.656Z,45.12
2019-02-25T08:33:58.631Z,45.15
2019-02-25T08:34:58.612Z,44.29
2019-02-25T08:35:58.604Z,43.80
2019-02-25T08:37:02.300Z,43.52
2019-02-25T08:37:58.553Z,43.83
2019-02-25T08:38:58.538Z,43.62
2019-02-25T08:39:58.516Z,43.16
2019-02-25T08:40:58.506Z,43.26
2019-02-25T08:41:58.486Z,42.58
2019-02-25T08:42:58.471Z,42.51
2019-02-25T08:43:58.448Z,41.72
2019-02-25T08:44:58.436Z,42.01
2019-02-25T08:45:58.415Z,42.41
2019-02-25T08:46:58.404Z,41.82
2019-02-25T08:47:58.385Z,42.13
2019-02-25T08:48:58.363Z,41.46
2019-02-25T08:49:58.357Z,41.84
2019-02-25T08:50:58.332Z,41.07
2019-02-25T08:51:58.320Z,41.27
2019-02-25T08:52:58.304Z,41.09
2019-02-25T08:53:58.284Z,41.57
2019-02-25T08:54:58.271Z,41.28
2019-02-25T08:55:58.424Z,39.94
2019-02-25T08:56:58.249Z,40.06
2019-02-25T08:57:58.234Z,39.22
2019-02-25T08:58:58.213Z,38.76
2019-02-25T08:59:58.192Z,38.18
2019-02-25T09:00:58.180Z,38.45
2019-02-25T09:01:58.170Z,38.91
2019-02-25T09:02:58.154Z,38.72
2019-02-25T09:03:58.143Z,39.01
2019-02-25T09:04:58.124Z,39.12
2019-02-25T09:05:58.113Z,38.81
2019-02-25T09:06:58.096Z,38.81
2019-02-25T09:07:58.086Z,39.87
2019-02-25T09:08:58.071Z,40.42
2019-02-25T09:09:58.054Z,39.85
2019-02-25T09:10:58.046Z,39.10
2019-02-25T09:11:58.028Z,39.03
2019-02-25T09:12:58.012Z,40.08
2019-02-25T09:13:58.002Z,39.39
2019-02-25T09:14:57.988Z,38.62
2019-02-25T09:15:57.978Z,38.79
2019-02-25T09:16:57.960Z,39.37
2019-02-25T09:17:57.952Z,40.21
2019-02-25T09:18:58.029Z,41.17
2019-02-25T09:19:57.932Z,40.95
2019-02-25T09:20:57.917Z,42.30
2019-02-25T09:21:57.900Z,43.16
2019-02-25T09:22:57.884Z,43.04
2019-02-25T09:23:57.877Z,42.66
2019-02-25T09:24:57.864Z,43.62
2019-02-25T09:25:57.854Z,43.71
2019-02-25T09:26:57.835Z,43.08
2019-02-25T09:27:57.820Z,43.10
2019-02-25T09:28:57.815Z,41.21
2019-02-25T09:29:57.798Z,40.94
2019-02-25T09:30:57.783Z,39.72
2019-02-25T09:31:57.773Z,38.96
2019-02-25T09:32:57.757Z,37.93
2019-02-25T09:33:57.749Z,37.47
2019-02-25T09:34:57.738Z,36.82
2019-02-25T09:35:57.726Z,35.76
2019-02-25T09:36:57.715Z,35.85
2019-02-25T09:37:57.700Z,35.85
2019-02-25T09:38:57.693Z,35.77
2019-02-25T09:39:57.682Z,35.58
2019-02-25T09:40:57.667Z,34.92
2019-02-25T09:41:57.675Z,34.54
2019-02-25T09:42:57.649Z,34.54
2019-02-25T09:43:57.641Z,34.75
2019-02-25T09:44:58.355Z,34.48
2019-02-25T09:45:57.622Z,33.92
2019-02-25T09:46:57.612Z,33.91
2019-02-25T09:47:57.597Z,34.21
2019-02-25T09:48:57.597Z,33.63
2019-02-25T09:49:57.578Z,33.34
2019-02-25T09:50:57.570Z,32.87
2019-02-25T09:51:57.564Z,32.78
2019-02-25T09:52:57.551Z,33.36
2019-02-25T09:53:57.547Z,33.36
2019-02-25T09:54:57.536Z,34.03
2019-02-25T09:55:57.531Z,33.18
2019-02-25T09:56:57.521Z,32.68
2019-02-25T09:57:57.531Z,32.78
2019-02-25T09:58:57.506Z,33.36
2019-02-25T09:59:57.497Z,33.07
2019-02-25T10:00:57.492Z,33.74
2019-02-25T10:01:57.485Z,33.74
2019-02-25T10:02:57.482Z,32.89
2019-02-25T10:03:57.475Z,32.97
2019-02-25T10:04:57.467Z,33.66
2019-02-25T10:05:57.458Z,33.28
2019-02-25T10:07:02.280Z,32.79
2019-02-25T10:07:57.443Z,32.81
2019-02-25T10:08:57.435Z,32.62
2019-02-25T10:09:57.445Z,33.29
2019-02-25T10:10:57.429Z,33.87
2019-02-25T10:11:57.419Z,33.89
2019-02-25T10:12:57.411Z,33.91
2019-02-25T10:13:57.407Z,33.50
2019-02-25T10:14:57.403Z,34.08
2019-02-25T10:15:57.398Z,34.66
2019-02-25T10:16:57.389Z,34.64
2019-02-25T10:17:57.384Z,35.22
2019-02-25T10:18:57.379Z,35.52
2019-02-25T10:19:57.374Z,33.97
2019-02-25T10:20:57.369Z,34.82
2019-02-25T10:21:57.364Z,34.92
2019-02-25T10:22:57.363Z,35.40
2019-02-25T10:23:57.351Z,35.50
2019-02-25T10:24:57.345Z,35.98
2019-02-25T10:25:57.343Z,35.98
2019-02-25T10:26:57.339Z,35.80
2019-02-25T10:27:57.333Z,35.80
2019-02-25T10:28:57.322Z,35.78
2019-02-25T10:29:57.321Z,36.09
2019-02-25T10:30:57.325Z,35.71
2019-02-25T10:31:57.309Z,36.00
2019-02-25T10:32:57.306Z,35.71
2019-02-25T10:33:57.294Z,35.90
2019-02-25T10:34:57.290Z,36.57
2019-02-25T10:35:57.284Z,36.29
2019-02-25T10:36:57.277Z,36.11
2019-02-25T10:37:57.273Z,35.84
2019-02-25T10:38:57.261Z,35.72
2019-02-25T10:39:57.259Z,36.32
2019-02-25T10:40:59.269Z,36.50
2019-02-25T10:41:58.089Z,35.42
2019-02-25T10:42:57.239Z,36.01
2019-02-25T10:43:58.099Z,36.30
2019-02-25T10:44:57.223Z,36.71
2019-02-25T10:45:57.216Z,36.03
2019-02-25T10:46:57.213Z,35.14
2019-02-25T10:47:58.759Z,35.32
2019-02-25T10:48:59.098Z,36.57
2019-02-25T10:49:58.600Z,38.20
2019-02-25T10:50:57.182Z,38.66
2019-02-25T10:51:57.173Z,38.45
2019-02-25T10:53:03.449Z,39.87
2019-02-25T10:53:57.158Z,40.34
2019-02-25T10:54:58.314Z,40.84
2019-02-25T10:55:57.146Z,40.84
2019-02-25T10:56:57.857Z,41.41
2019-02-25T10:57:59.223Z,41.13
2019-02-25T10:58:57.717Z,41.71
2019-02-25T10:59:57.164Z,41.71
2019-02-25T11:00:57.158Z,39.87
2019-02-25T11:01:57.152Z,40.14
2019-02-25T11:02:58.229Z,40.24
2019-02-25T11:03:57.082Z,41.18
2019-02-25T11:04:57.692Z,41.18
2019-02-25T11:05:58.670Z,42.14
2019-02-25T11:06:58.542Z,42.84
2019-02-25T11:07:57.056Z,42.46
2019-02-25T11:08:57.044Z,43.51
2019-02-25T11:09:57.036Z,43.61
2019-02-25T11:10:57.031Z,42.65
2019-02-25T11:11:59.576Z,42.63
2019-02-25T11:12:57.730Z,42.91
2019-02-25T11:13:58.771Z,43.11
2019-02-25T11:14:56.996Z,43.11
2019-02-25T11:15:56.988Z,43.40
2019-02-25T11:16:56.983Z,43.40
2019-02-25T11:17:56.969Z,43.51
2019-02-25T11:18:58.580Z,43.13
2019-02-25T11:19:58.515Z,43.32
2019-02-25T11:20:58.870Z,43.41
2019-02-25T11:21:56.942Z,43.32
2019-02-25T11:22:56.934Z,43.20
2019-02-25T11:23:59.003Z,43.68
2019-02-25T11:24:57.717Z,44.17
2019-02-25T11:25:57.910Z,44.55
2019-02-25T11:26:58.833Z,44.74
2019-02-25T11:27:56.892Z,44.17
2019-02-25T11:28:56.885Z,43.85
2019-02-25T11:29:56.876Z,44.35
2019-02-25T11:30:56.867Z,43.40
2019-02-25T11:31:56.856Z,44.35
2019-02-25T11:32:59.528Z,43.88
2019-02-25T11:33:58.450Z,43.30
2019-02-25T11:34:56.830Z,43.68
2019-02-25T11:35:56.826Z,43.47
2019-02-25T11:36:57.773Z,44.14
2019-02-25T11:37:58.968Z,44.45
2019-02-25T11:38:57.979Z,44.24
2019-02-25T11:39:57.724Z,44.05
2019-02-25T11:40:56.778Z,45.22
2019-02-25T11:41:56.771Z,45.32
2019-02-25T11:42:56.764Z,43.97
2019-02-25T11:43:56.761Z,44.55
2019-02-25T11:44:59.110Z,44.35
2019-02-25T11:45:56.738Z,44.17
2019-02-25T11:46:56.731Z,43.88
2019-02-25T11:47:56.721Z,44.93
2019-02-25T11:48:56.716Z,45.13
2019-02-25T11:49:56.702Z,45.51
2019-02-25T11:50:56.696Z,45.22
2019-02-25T11:51:56.688Z,44.74
2019-02-25T11:52:56.678Z,43.97
2019-02-25T11:53:56.671Z,44.34
2019-02-25T11:54:56.664Z,45.68
2019-02-25T11:55:56.655Z,45.68
2019-02-25T11:56:56.642Z,45.01
2019-02-25T11:57:56.641Z,44.62
2019-02-25T11:58:56.632Z,43.95
2019-02-25T11:59:56.618Z,45.29
2019-02-25T12:00:56.611Z,44.82
2019-02-25T12:01:59.224Z,45.32
2019-02-25T12:02:56.594Z,44.55
2019-02-25T12:03:56.584Z,44.65
2019-02-25T12:04:56.575Z,45.01
2019-02-25T12:05:56.564Z,44.93
2019-02-25T12:06:56.562Z,44.35
2019-02-25T12:07:56.548Z,44.35
2019-02-25T12:08:56.542Z,45.80
2019-02-25T12:09:56.530Z,44.93
2019-02-25T12:10:56.526Z,44.45
2019-02-25T12:11:56.508Z,44.91
2019-02-25T12:12:57.315Z,44.72
2019-02-25T12:13:56.497Z,45.39
2019-02-25T12:14:56.486Z,45.49
2019-02-25T12:15:56.477Z,45.59
2019-02-25T12:16:56.463Z,45.10
2019-02-25T12:17:56.456Z,46.43
2019-02-25T12:18:56.452Z,46.53
2019-02-25T12:19:56.439Z,46.43
2019-02-25T12:20:56.433Z,47.13
2019-02-25T12:21:56.423Z,46.84
2019-02-25T12:22:56.419Z,46.36
2019-02-25T12:23:56.405Z,45.87
2019-02-25T12:24:56.397Z,46.47
2019-02-25T12:25:56.381Z,45.80
2019-02-25T12:26:56.376Z,44.74
2019-02-25T12:27:56.370Z,45.20
2019-02-25T12:28:56.362Z,45.32
2019-02-25T12:29:56.350Z,45.87
2019-02-25T12:30:56.336Z,46.09
2019-02-25T12:31:56.326Z,46.55
2019-02-25T12:32:56.318Z,46.45
2019-02-25T12:33:56.309Z,46.53
2019-02-25T12:34:56.299Z,46.16
2019-02-25T12:35:56.291Z,46.74
2019-02-25T12:36:56.283Z,46.43
2019-02-25T12:37:56.285Z,46.62
2019-02-25T12:38:56.265Z,46.91
2019-02-25T12:39:56.263Z,47.49
2019-02-25T12:40:56.241Z,47.89
2019-02-25T12:41:56.237Z,47.22
2019-02-25T12:42:56.221Z,46.93
2019-02-25T12:43:56.211Z,46.16
2019-02-25T12:44:56.208Z,46.36
2019-02-25T12:45:56.193Z,46.55
2019-02-25T12:46:56.189Z,46.84
2019-02-25T12:47:56.174Z,46.53
2019-02-25T12:48:56.171Z,46.33
2019-02-25T12:49:56.154Z,45.76
2019-02-25T12:50:56.147Z,46.33
2019-02-25T12:51:56.136Z,46.23